MiSS Gill — WDD3010 — position and weather

sailwx.info

Track history (hours):
 
Tides and Currents Weather Stations Pressure Air Temp Water Temp Dewpoint Dewpoint Depression Visibility Wind Speed Wind Dir Waves Ship Positions

MiSS Gill

Owner: Willoughgy Spit LLC, Norfolk, VA. More information available from US FCC via Universal Licensing System and Coast Guard Vessel Documentation Center.

Last reported at 2018-Jan-22 04:24 UTC. Time now 2018-Jan-23 03:38 UTC.
Position N 36°55' W 076°20'.

Length 33 m; draft 4.6 m.

Type: Towing. MMSI: 367122680.

Date/timePositionNaut miles runAvg speedWind from/ knotsBaromVisibWave heightAir tempDewpointWater temp
2018-Jan-22 04:24N 36°55' W 076°20'0 0.0
2018-Jan-22 02:14N 36°55' W 076°20'2 5.0
2018-Jan-22 01:53N 36°53' W 076°20'1 1.1
2018-Jan-22 01:04N 36°52' W 076°21'0 0.0
2018-Jan-21 18:58N 36°52' W 076°21'0 0.1
2018-Jan-21 14:33N 36°53' W 076°21'0 7.1
2018-Jan-21 14:30N 36°53' W 076°20'3 7.0
2018-Jan-21 14:00N 36°50' W 076°17'0 0.2
2018-Jan-21 12:18N 36°50' W 076°16'0 0.0
2018-Jan-21 11:48N 36°50' W 076°16'0 0.0
2018-Jan-21 11:30N 36°50' W 076°16'0 0.0
2018-Jan-21 10:18N 36°50' W 076°16'0 0.0
2018-Jan-21 10:00N 36°50' W 076°16'0 0.0
2018-Jan-21 08:54N 36°50' W 076°16'0 0.0
2018-Jan-21 08:18N 36°50' W 076°16'0 0.0
2018-Jan-21 08:00N 36°50' W 076°16'0 0.0
2018-Jan-21 07:30N 36°50' W 076°16'0 0.0
2018-Jan-21 07:00N 36°50' W 076°16'0 0.0
2018-Jan-21 06:30N 36°50' W 076°16'0 0.0
2018-Jan-21 06:00N 36°50' W 076°16'0 0.0
2018-Jan-21 05:12N 36°50' W 076°16'0 0.0
2018-Jan-21 05:00N 36°50' W 076°16'0 0.0
2018-Jan-21 04:30N 36°50' W 076°16'0 0.0
2018-Jan-21 04:00N 36°50' W 076°16'0 0.0
2018-Jan-21 03:30N 36°50' W 076°16'0 0.0
2018-Jan-21 03:00N 36°50' W 076°16'0 0.0
2018-Jan-21 02:30N 36°50' W 076°16'0 0.0
2018-Jan-21 01:54N 36°50' W 076°16'0 0.0
2018-Jan-21 01:30N 36°50' W 076°16'0 0.0
2018-Jan-21 01:00N 36°50' W 076°16'0 0.0
2018-Jan-21 00:30N 36°50' W 076°16'0 0.0
2018-Jan-21 00:00N 36°50' W 076°16'0 0.0
2018-Jan-20 23:30N 36°50' W 076°16'0 0.0
2018-Jan-20 23:00N 36°50' W 076°16'0 0.0
2018-Jan-20 22:30N 36°50' W 076°16'0 0.0
2018-Jan-20 21:36N 36°50' W 076°16'0 0.0
2018-Jan-20 21:24N 36°50' W 076°16'0 0.0
2018-Jan-20 21:00N 36°50' W 076°16'0 0.0
2018-Jan-20 20:30N 36°50' W 076°16'0 0.0
2018-Jan-20 20:00N 36°50' W 076°16'0 0.0
2018-Jan-20 14:29N 36°50' W 076°16'1 0.0
2018-Jan-20 00:43N 36°50' W 076°17'1 4.2
2018-Jan-20 00:31N 36°51' W 076°18'3 0.8
2018-Jan-19 20:49N 36°52' W 076°21'0 0.0
2018-Jan-19 20:13N 36°52' W 076°21'0 0.0
2018-Jan-19 19:58N 36°52' W 076°21'0 0.0
2018-Jan-19 17:52N 36°52' W 076°21'0 0.0
2018-Jan-19 17:28N 36°52' W 076°21'0 0.0
2018-Jan-19 16:59N 36°52' W 076°21'  
Track history (hours):
 
Tides and Currents Weather Stations Pressure Air Temp Water Temp Dewpoint Dewpoint Depression Visibility Wind Speed Wind Dir Waves Ship Positions

MiSS Gill

Owner: Willoughgy Spit LLC, Norfolk, VA. More information available from US FCC via Universal Licensing System and Coast Guard Vessel Documentation Center.

Last reported at 2018-Jan-22 04:24 UTC. Time now 2018-Jan-23 03:38 UTC.
Position N 36°55' W 076°20'.

Length 33 m; draft 4.6 m.

Type: Towing. MMSI: 367122680.

Date/timePositionNaut miles runAvg speedWind from/ knotsBaromVisibWave heightAir tempDewpointWater temp
2018-Jan-22 04:24N 36°55' W 076°20'0 0.0
2018-Jan-22 02:14N 36°55' W 076°20'2 5.0
2018-Jan-22 01:53N 36°53' W 076°20'1 1.1
2018-Jan-22 01:04N 36°52' W 076°21'0 0.0
2018-Jan-21 18:58N 36°52' W 076°21'0 0.1
2018-Jan-21 14:33N 36°53' W 076°21'0 7.1
2018-Jan-21 14:30N 36°53' W 076°20'3 7.0
2018-Jan-21 14:00N 36°50' W 076°17'0 0.2
2018-Jan-21 12:18N 36°50' W 076°16'0 0.0
2018-Jan-21 11:48N 36°50' W 076°16'0 0.0
2018-Jan-21 11:30N 36°50' W 076°16'0 0.0
2018-Jan-21 10:18N 36°50' W 076°16'0 0.0
2018-Jan-21 10:00N 36°50' W 076°16'0 0.0
2018-Jan-21 08:54N 36°50' W 076°16'0 0.0
2018-Jan-21 08:18N 36°50' W 076°16'0 0.0
2018-Jan-21 08:00N 36°50' W 076°16'0 0.0
2018-Jan-21 07:30N 36°50' W 076°16'0 0.0
2018-Jan-21 07:00N 36°50' W 076°16'0 0.0
2018-Jan-21 06:30N 36°50' W 076°16'0 0.0
2018-Jan-21 06:00N 36°50' W 076°16'0 0.0
2018-Jan-21 05:12N 36°50' W 076°16'0 0.0
2018-Jan-21 05:00N 36°50' W 076°16'0 0.0
2018-Jan-21 04:30N 36°50' W 076°16'0 0.0
2018-Jan-21 04:00N 36°50' W 076°16'0 0.0
2018-Jan-21 03:30N 36°50' W 076°16'0 0.0
2018-Jan-21 03:00N 36°50' W 076°16'0 0.0
2018-Jan-21 02:30N 36°50' W 076°16'0 0.0
2018-Jan-21 01:54N 36°50' W 076°16'0 0.0
2018-Jan-21 01:30N 36°50' W 076°16'0 0.0
2018-Jan-21 01:00N 36°50' W 076°16'0 0.0
2018-Jan-21 00:30N 36°50' W 076°16'0 0.0
2018-Jan-21 00:00N 36°50' W 076°16'0 0.0
2018-Jan-20 23:30N 36°50' W 076°16'0 0.0
2018-Jan-20 23:00N 36°50' W 076°16'0 0.0
2018-Jan-20 22:30N 36°50' W 076°16'0 0.0
2018-Jan-20 21:36N 36°50' W 076°16'0 0.0
2018-Jan-20 21:24N 36°50' W 076°16'0 0.0
2018-Jan-20 21:00N 36°50' W 076°16'0 0.0
2018-Jan-20 20:30N 36°50' W 076°16'0 0.0
2018-Jan-20 20:00N 36°50' W 076°16'0 0.0
2018-Jan-20 14:29N 36°50' W 076°16'1 0.0
2018-Jan-20 00:43N 36°50' W 076°17'1 4.2
2018-Jan-20 00:31N 36°51' W 076°18'3 0.8
2018-Jan-19 20:49N 36°52' W 076°21'0 0.0
2018-Jan-19 20:13N 36°52' W 076°21'0 0.0
2018-Jan-19 19:58N 36°52' W 076°21'0 0.0
2018-Jan-19 17:52N 36°52' W 076°21'0 0.0
2018-Jan-19 17:28N 36°52' W 076°21'0 0.0
2018-Jan-19 16:59N 36°52' W 076°21'  

Dump ship's entire track history